Decoded Metar for OINN (NOSHAHR in IRAN) (IATA:N/A) | Meteo·Mobile Aviation Weather
aviador You're here:

OINN Decoded Metar

NOSHAHR in IRAN
Report Time2019-04-19 22:00:00
UTC Time2019-04-19 23:00:54
Flight Rules mvfr MVFR
WindCalm
Visibility9999 m
Phenomena:N/A
Clouds:Broken 020 Hf
Overcast 080 Hf
Expected CloudBase > 400 ft AGL from Temp-Dew spread
Ceiling2,000 ft
Temp11°C (ISA -4)
Dew Point10°C (94% RH)
QNH1015 hPa
Density Alt-459 ft
Elevation-62 ft
Report Wrong Elevation
Raw Report
OINN 192200Z 00000KT 9999 BKN020 OVC080 11/10 Q1015=

Extra information for OINN:More info

Metar Taf Metar & Taf Last 4 Metars F.Rules Stats Wind Profile Meteogram Temp Stats Airport Information Weather charts Add Link Nearby VenuesMetar ALERT Operation Metar Decoded Social comments